createdAt,value
2019-03-19T00:01:52.298Z,61.32
2019-03-19T00:04:18.984Z,61.09
2019-03-19T00:06:45.634Z,61.77
2019-03-19T00:09:12.249Z,61.93
2019-03-19T00:11:38.815Z,61.64
2019-03-19T00:14:05.458Z,62.14
2019-03-19T00:16:32.189Z,62.58
2019-03-19T00:19:55.141Z,62.54
2019-03-19T00:22:21.741Z,62.47
2019-03-19T00:24:48.351Z,62.08
2019-03-19T00:27:14.881Z,62.83
2019-03-19T00:29:41.521Z,62.08
2019-03-19T00:32:08.093Z,61.94
2019-03-19T00:34:34.674Z,61.66
2019-03-19T00:37:01.299Z,62.16
2019-03-19T00:39:27.939Z,62.32
2019-03-19T00:41:54.511Z,62.97
2019-03-19T00:44:21.384Z,62.70
2019-03-19T00:46:48.129Z,62.85
2019-03-19T00:49:14.762Z,62.44
2019-03-19T00:51:41.390Z,62.77
2019-03-19T00:54:07.937Z,62.66
2019-03-19T00:56:34.528Z,63.00
2019-03-19T00:59:01.076Z,63.26
2019-03-19T01:01:27.833Z,63.38
2019-03-19T01:03:54.560Z,62.90
2019-03-19T01:06:22.496Z,63.38
2019-03-19T01:08:49.244Z,63.57
2019-03-19T01:11:15.794Z,63.31
2019-03-19T01:13:42.558Z,63.33
2019-03-19T01:16:09.337Z,63.67
2019-03-19T01:18:35.972Z,64.15
2019-03-19T01:21:02.873Z,63.71
2019-03-19T01:23:29.510Z,63.56
2019-03-19T01:25:56.077Z,63.84
2019-03-19T01:28:22.810Z,63.67
2019-03-19T01:30:49.550Z,63.87
2019-03-19T01:33:16.180Z,63.41
2019-03-19T01:35:42.842Z,63.74
2019-03-19T01:38:09.386Z,63.61
2019-03-19T01:40:35.953Z,63.57
2019-03-19T01:43:02.608Z,63.69
2019-03-19T01:45:29.173Z,63.85
2019-03-19T01:47:55.836Z,64.09
2019-03-19T01:50:22.681Z,64.49
2019-03-19T01:52:49.427Z,64.37
2019-03-19T01:55:16.797Z,64.88
2019-03-19T01:57:43.610Z,64.72
2019-03-19T02:00:15.410Z,65.01
2019-03-19T02:02:42.309Z,64.58
2019-03-19T02:05:10.300Z,64.71
2019-03-19T02:07:37.178Z,64.56
2019-03-19T02:10:09.658Z,64.61
2019-03-19T02:12:36.313Z,65.07
2019-03-19T02:15:07.403Z,64.43
2019-03-19T02:17:33.969Z,63.98
2019-03-19T02:20:00.537Z,64.09
2019-03-19T02:22:27.300Z,64.26
2019-03-19T02:24:53.873Z,64.50
2019-03-19T02:27:20.479Z,64.51
2019-03-19T02:29:48.290Z,64.76
2019-03-19T02:32:15.050Z,64.72
2019-03-19T02:34:41.623Z,64.41
2019-03-19T02:37:08.263Z,64.65
2019-03-19T02:39:34.853Z,64.60
2019-03-19T02:42:01.551Z,64.72
2019-03-19T02:44:29.414Z,64.58
2019-03-19T02:46:55.944Z,64.37
2019-03-19T02:49:22.684Z,64.40
2019-03-19T02:51:49.437Z,64.48
2019-03-19T02:54:16.101Z,64.81
2019-03-19T02:56:42.764Z,64.71
2019-03-19T02:59:09.353Z,64.83
2019-03-19T03:01:35.897Z,65.16
2019-03-19T03:04:03.132Z,65.49
2019-03-19T03:06:29.698Z,65.04
2019-03-19T03:08:59.585Z,65.09
2019-03-19T03:11:26.321Z,64.92
2019-03-19T03:13:52.965Z,65.05
2019-03-19T03:16:19.554Z,65.09
2019-03-19T03:18:46.352Z,64.66
2019-03-19T03:21:13.172Z,64.32
2019-03-19T03:23:39.834Z,64.37
2019-03-19T03:26:06.518Z,64.78
2019-03-19T03:28:33.267Z,64.59
2019-03-19T03:31:00.053Z,64.91
2019-03-19T03:33:26.597Z,64.64
2019-03-19T03:35:53.211Z,64.52
2019-03-19T03:38:19.898Z,64.95
2019-03-19T03:40:46.588Z,64.65
2019-03-19T03:43:14.016Z,64.85
2019-03-19T03:45:40.649Z,65.03
2019-03-19T03:48:07.374Z,65.39
2019-03-19T03:50:33.975Z,65.45
2019-03-19T03:53:00.607Z,65.82
2019-03-19T03:55:27.182Z,66.10
2019-03-19T03:57:54.002Z,66.09
2019-03-19T04:00:22.521Z,66.64
2019-03-19T04:02:50.500Z,66.56
2019-03-19T04:05:18.968Z,66.90
2019-03-19T04:07:46.137Z,67.38
2019-03-19T04:10:15.201Z,66.98
2019-03-19T04:12:42.009Z,66.70
2019-03-19T04:15:12.803Z,66.88
2019-03-19T04:17:39.594Z,67.19
2019-03-19T04:20:09.583Z,67.59
2019-03-19T04:22:36.258Z,67.77
2019-03-19T04:25:05.857Z,67.71
2019-03-19T04:27:32.490Z,67.34
2019-03-19T04:29:59.296Z,67.77
2019-03-19T04:32:25.837Z,67.85
2019-03-19T04:34:52.402Z,67.41
2019-03-19T04:37:18.987Z,67.39
2019-03-19T04:39:45.612Z,67.42
2019-03-19T04:42:12.165Z,68.48
2019-03-19T04:44:38.756Z,68.13
2019-03-19T04:47:42.871Z,68.34
2019-03-19T04:50:13.987Z,67.76
2019-03-19T04:52:40.712Z,68.36
2019-03-19T04:55:10.873Z,67.69
2019-03-19T04:57:37.656Z,68.32
2019-03-19T05:00:09.969Z,68.39
2019-03-19T05:02:36.642Z,68.71
2019-03-19T05:05:08.175Z,68.15
2019-03-19T05:07:35.032Z,68.91
2019-03-19T05:10:05.557Z,69.66
2019-03-19T05:12:32.185Z,69.77
2019-03-19T05:14:58.744Z,69.08
2019-03-19T05:17:25.293Z,68.99
2019-03-19T05:19:51.982Z,69.40
2019-03-19T05:22:18.687Z,69.02
2019-03-19T05:24:45.279Z,68.80
2019-03-19T05:27:13.984Z,68.73
2019-03-19T05:29:40.867Z,68.67
2019-03-19T05:32:08.624Z,68.21
2019-03-19T05:34:35.196Z,67.74
2019-03-19T05:37:01.822Z,67.52
2019-03-19T05:39:28.414Z,67.04
2019-03-19T05:41:55.323Z,67.12
2019-03-19T05:44:22.046Z,66.64
2019-03-19T05:46:48.632Z,66.89
2019-03-19T05:49:15.198Z,67.08
2019-03-19T05:51:41.811Z,66.89
2019-03-19T05:54:08.494Z,66.21
2019-03-19T05:56:35.159Z,66.48
2019-03-19T05:59:01.852Z,66.44
2019-03-19T06:01:28.462Z,65.85
2019-03-19T06:03:55.045Z,65.31
2019-03-19T06:06:21.618Z,64.87
2019-03-19T06:08:48.294Z,64.86
2019-03-19T06:11:14.889Z,65.35
2019-03-19T06:13:41.580Z,65.14
2019-03-19T06:16:09.839Z,64.54
2019-03-19T06:18:36.640Z,64.77
2019-03-19T06:21:03.328Z,63.95
2019-03-19T06:23:30.176Z,64.14
2019-03-19T06:25:56.727Z,63.86
2019-03-19T06:28:23.559Z,63.71
2019-03-19T06:30:50.225Z,64.43
2019-03-19T06:33:16.901Z,64.68
2019-03-19T06:35:43.467Z,63.79
2019-03-19T06:38:10.072Z,63.29
2019-03-19T06:40:36.845Z,63.24
2019-03-19T06:43:03.797Z,63.11
2019-03-19T06:45:30.633Z,62.41
2019-03-19T06:47:57.183Z,63.19
2019-03-19T06:50:24.359Z,62.86
2019-03-19T06:52:51.233Z,62.39
2019-03-19T06:55:19.487Z,62.81
2019-03-19T06:57:47.436Z,62.60
2019-03-19T07:00:18.398Z,62.00
2019-03-19T07:02:45.441Z,62.41
2019-03-19T07:05:14.322Z,62.45
2019-03-19T07:07:40.967Z,62.35
2019-03-19T07:10:12.265Z,61.80
2019-03-19T07:12:40.214Z,61.63
2019-03-19T07:15:12.523Z,62.93
2019-03-19T07:17:39.139Z,61.92
2019-03-19T07:20:10.909Z,61.92
2019-03-19T07:22:37.620Z,62.65
2019-03-19T07:25:06.393Z,62.42
2019-03-19T07:27:33.023Z,62.16
2019-03-19T07:29:59.697Z,61.75
2019-03-19T07:32:26.273Z,61.57
2019-03-19T07:34:52.896Z,61.53
2019-03-19T07:37:22.593Z,61.87
2019-03-19T07:39:49.217Z,61.67
2019-03-19T07:42:17.786Z,60.92
2019-03-19T07:44:45.695Z,60.67
2019-03-19T07:47:12.424Z,61.37
2019-03-19T07:49:39.271Z,61.44
2019-03-19T07:52:06.031Z,62.11
2019-03-19T07:54:32.611Z,62.03
2019-03-19T07:56:59.300Z,61.71
2019-03-19T07:59:25.918Z,61.86
2019-03-19T08:01:52.579Z,61.32
2019-03-19T08:04:19.157Z,60.67
2019-03-19T08:06:47.065Z,61.55
2019-03-19T08:09:13.808Z,61.35
2019-03-19T08:11:40.433Z,60.87
2019-03-19T08:14:07.250Z,60.85
2019-03-19T08:16:36.864Z,60.79
2019-03-19T08:19:03.556Z,61.03
2019-03-19T08:21:30.249Z,60.01
2019-03-19T08:23:58.754Z,59.43
2019-03-19T08:26:25.514Z,59.21
2019-03-19T08:28:55.568Z,58.62
2019-03-19T08:31:21.691Z,59.05
2019-03-19T08:33:48.474Z,58.82
2019-03-19T08:36:16.358Z,58.56
2019-03-19T08:39:39.355Z,58.10
2019-03-19T08:42:06.076Z,57.80
2019-03-19T08:44:32.646Z,57.46
2019-03-19T08:46:59.253Z,57.57
2019-03-19T08:49:25.860Z,57.74
2019-03-19T08:51:52.403Z,57.38
2019-03-19T08:54:19.995Z,57.25
2019-03-19T08:56:46.855Z,57.11
2019-03-19T08:59:13.433Z,57.92
2019-03-19T09:01:40.085Z,58.56
2019-03-19T09:04:06.665Z,58.30
2019-03-19T09:06:33.323Z,56.84
2019-03-19T09:09:00.994Z,57.11
2019-03-19T09:11:29.593Z,55.63
2019-03-19T09:13:56.167Z,54.49
2019-03-19T09:16:23.070Z,53.91
2019-03-19T09:18:49.701Z,52.87
2019-03-19T09:21:16.379Z,53.43
2019-03-19T09:23:44.151Z,53.79
2019-03-19T09:26:10.721Z,53.32
2019-03-19T09:28:38.498Z,52.84
2019-03-19T09:31:05.471Z,53.90
2019-03-19T09:33:32.126Z,54.43
2019-03-19T09:35:58.705Z,54.21
2019-03-19T09:38:25.405Z,53.22
2019-03-19T09:40:52.124Z,53.31
2019-03-19T09:43:18.686Z,53.06
2019-03-19T09:45:45.265Z,53.19
2019-03-19T09:48:11.855Z,52.46
2019-03-19T09:50:38.599Z,53.59
2019-03-19T09:53:05.472Z,53.73
2019-03-19T09:55:32.144Z,53.54
2019-03-19T09:57:58.709Z,52.63
2019-03-19T10:00:25.602Z,52.03
2019-03-19T10:02:52.272Z,52.73
2019-03-19T10:05:19.191Z,52.74
2019-03-19T10:07:46.163Z,53.23
2019-03-19T10:10:15.265Z,53.30
2019-03-19T10:12:42.213Z,53.72
2019-03-19T10:15:09.608Z,54.05
2019-03-19T10:17:36.256Z,53.94
2019-03-19T10:20:08.676Z,53.39
2019-03-19T10:22:35.205Z,53.46
2019-03-19T10:25:06.654Z,53.70
2019-03-19T10:27:33.267Z,52.64
2019-03-19T10:29:59.903Z,53.69
2019-03-19T10:32:26.585Z,53.66
2019-03-19T10:34:53.207Z,52.48
2019-03-19T10:37:19.832Z,52.70
2019-03-19T10:39:46.511Z,51.42
2019-03-19T10:42:14.290Z,52.85
2019-03-19T10:44:41.019Z,51.73
2019-03-19T10:47:30.426Z,52.20
2019-03-19T10:49:57.350Z,51.38
2019-03-19T10:52:24.074Z,52.08
2019-03-19T10:54:50.654Z,51.81
2019-03-19T10:57:17.517Z,50.59
2019-03-19T10:59:49.169Z,50.32
2019-03-19T11:02:12.835Z,50.04
2019-03-19T11:04:39.474Z,49.36
2019-03-19T11:07:06.163Z,49.42
2019-03-19T11:09:32.851Z,49.23
2019-03-19T11:11:59.652Z,49.41
2019-03-19T11:14:26.276Z,50.18
2019-03-19T11:16:53.011Z,48.80
2019-03-19T11:19:19.603Z,48.91
2019-03-19T11:21:46.132Z,49.08
2019-03-19T11:24:12.819Z,50.86
2019-03-19T11:26:39.385Z,49.94
2019-03-19T11:29:06.001Z,49.08
2019-03-19T11:31:32.559Z,49.91
2019-03-19T11:33:59.317Z,50.64
2019-03-19T11:36:26.753Z,51.10
2019-03-19T11:38:53.456Z,50.21
2019-03-19T11:41:20.268Z,50.37
2019-03-19T11:43:46.974Z,50.26
2019-03-19T11:46:13.732Z,49.00
2019-03-19T11:48:40.422Z,48.47
2019-03-19T11:51:07.095Z,48.42
2019-03-19T11:53:33.710Z,47.61
2019-03-19T11:56:00.438Z,46.92
2019-03-19T11:58:28.431Z,47.69
2019-03-19T12:00:56.924Z,47.20
2019-03-19T12:03:23.563Z,48.44
2019-03-19T12:05:50.216Z,48.00
2019-03-19T12:08:16.783Z,49.07
2019-03-19T12:10:43.583Z,49.53
2019-03-19T12:13:12.162Z,48.68
2019-03-19T12:15:38.980Z,48.21
2019-03-19T12:18:06.960Z,49.40
2019-03-19T12:20:33.808Z,48.87
2019-03-19T12:23:00.468Z,47.99
2019-03-19T12:25:27.176Z,47.99
2019-03-19T12:27:53.800Z,47.92
2019-03-19T12:30:26.114Z,48.27
2019-03-19T12:32:53.328Z,49.57
2019-03-19T12:36:35.345Z,49.52
2019-03-19T12:39:05.664Z,49.29
2019-03-19T12:41:32.362Z,49.00
2019-03-19T12:43:58.953Z,48.95
2019-03-19T12:46:25.631Z,49.68
2019-03-19T12:48:54.428Z,49.86
2019-03-19T12:51:21.169Z,50.61
2019-03-19T12:53:47.964Z,50.76
2019-03-19T12:56:14.542Z,50.06
2019-03-19T12:58:41.124Z,49.47
2019-03-19T13:01:07.885Z,49.04
2019-03-19T13:03:34.683Z,49.38
2019-03-19T13:06:01.456Z,50.04
2019-03-19T13:08:28.051Z,51.07
2019-03-19T13:10:54.786Z,50.99
2019-03-19T13:13:21.543Z,51.99
2019-03-19T13:15:48.425Z,51.42
2019-03-19T13:18:15.262Z,50.94
2019-03-19T13:20:41.938Z,51.82
2019-03-19T13:23:09.237Z,50.91
2019-03-19T13:25:36.120Z,51.63
2019-03-19T13:28:05.842Z,51.02
2019-03-19T13:30:32.452Z,50.87
2019-03-19T13:32:59.240Z,50.00
2019-03-19T13:35:25.921Z,49.53
2019-03-19T13:37:52.625Z,50.28
2019-03-19T13:40:19.615Z,51.28
2019-03-19T13:42:46.748Z,51.51
2019-03-19T13:45:18.025Z,51.53
2019-03-19T13:47:44.901Z,51.33
2019-03-19T13:50:15.525Z,51.54
2019-03-19T13:52:42.305Z,51.87
2019-03-19T13:55:14.653Z,51.45
2019-03-19T13:57:41.403Z,50.68
2019-03-19T14:00:13.328Z,51.23
2019-03-19T14:02:40.123Z,51.41
2019-03-19T14:05:11.107Z,51.21
2019-03-19T14:07:38.012Z,51.40
2019-03-19T14:10:09.361Z,50.68
2019-03-19T14:12:36.167Z,50.09
2019-03-19T14:15:59.150Z,51.26
2019-03-19T14:18:25.942Z,50.99
2019-03-19T14:20:52.611Z,50.91
2019-03-19T14:23:19.392Z,50.48
2019-03-19T14:25:45.974Z,50.95
2019-03-19T14:28:12.647Z,51.22
2019-03-19T14:30:39.358Z,51.11
2019-03-19T14:33:06.208Z,51.85
2019-03-19T14:35:37.619Z,51.47
2019-03-19T14:38:01.857Z,51.06
2019-03-19T14:40:29.008Z,51.07
2019-03-19T14:42:58.307Z,51.62
2019-03-19T14:45:24.764Z,51.01
2019-03-19T14:47:51.335Z,51.81
2019-03-19T14:50:19.314Z,51.87
2019-03-19T14:52:46.133Z,51.32
2019-03-19T14:55:12.920Z,51.47
2019-03-19T14:57:39.764Z,50.51
2019-03-19T15:00:11.541Z,50.33
2019-03-19T15:02:38.195Z,50.00
2019-03-19T15:05:09.171Z,49.52
2019-03-19T15:07:35.784Z,48.90
2019-03-19T15:10:05.800Z,48.64
2019-03-19T15:12:32.390Z,48.73
2019-03-19T15:14:58.923Z,48.53
2019-03-19T15:17:25.506Z,49.27
2019-03-19T15:19:52.116Z,49.77
2019-03-19T15:22:18.726Z,49.71
2019-03-19T15:24:45.459Z,49.94
2019-03-19T15:27:12.467Z,50.16
2019-03-19T15:29:39.061Z,50.25
2019-03-19T15:32:05.629Z,50.74
2019-03-19T15:34:32.284Z,50.97
2019-03-19T15:36:58.996Z,51.07
2019-03-19T15:39:25.821Z,51.29
2019-03-19T15:41:52.447Z,51.68
2019-03-19T15:44:19.020Z,51.60
2019-03-19T15:46:45.578Z,51.77
2019-03-19T15:49:12.173Z,51.01
2019-03-19T15:51:39.043Z,51.48
2019-03-19T15:54:05.616Z,51.95
2019-03-19T15:56:32.205Z,51.63
2019-03-19T15:58:59.907Z,52.27
2019-03-19T16:01:26.461Z,52.27
2019-03-19T16:03:53.134Z,51.81
2019-03-19T16:06:19.856Z,52.28
2019-03-19T16:08:46.422Z,52.87
2019-03-19T16:11:13.167Z,53.48
2019-03-19T16:13:39.872Z,53.34
2019-03-19T16:16:06.571Z,54.01
2019-03-19T16:18:33.142Z,54.24
2019-03-19T16:20:59.734Z,54.54
2019-03-19T16:23:27.693Z,54.44
2019-03-19T16:25:54.290Z,54.54
2019-03-19T16:28:21.125Z,54.68
2019-03-19T16:30:47.834Z,54.92
2019-03-19T16:33:14.527Z,55.07
2019-03-19T16:35:44.410Z,55.17
2019-03-19T16:38:11.030Z,55.22
2019-03-19T16:40:38.003Z,55.89
2019-03-19T16:43:04.908Z,55.54
2019-03-19T16:45:31.723Z,55.69
2019-03-19T16:47:58.485Z,55.15
2019-03-19T16:50:25.327Z,55.85
2019-03-19T16:52:52.238Z,56.07
2019-03-19T16:55:20.605Z,55.37
2019-03-19T16:57:47.413Z,55.67
2019-03-19T17:00:17.966Z,55.10
2019-03-19T17:02:45.049Z,54.96
2019-03-19T17:05:14.055Z,54.93
2019-03-19T17:07:40.811Z,54.77
2019-03-19T17:10:12.300Z,55.48
2019-03-19T17:12:39.210Z,55.62
2019-03-19T17:15:10.903Z,55.19
2019-03-19T17:17:37.588Z,54.73
2019-03-19T17:20:11.832Z,55.22
2019-03-19T17:22:39.417Z,55.48
2019-03-19T17:25:11.628Z,55.96
2019-03-19T17:27:38.355Z,56.02
2019-03-19T17:30:10.677Z,55.93
2019-03-19T17:32:40.369Z,55.92
2019-03-19T17:35:07.251Z,56.25
2019-03-19T17:37:33.956Z,56.49
2019-03-19T17:40:00.907Z,56.82
2019-03-19T17:42:27.513Z,57.45
2019-03-19T17:44:54.232Z,57.65
2019-03-19T17:47:20.974Z,57.51
2019-03-19T17:49:47.960Z,57.67
2019-03-19T17:52:14.612Z,57.92
2019-03-19T17:54:44.312Z,58.37
2019-03-19T17:57:11.540Z,59.17
2019-03-19T17:59:38.401Z,59.39
2019-03-19T18:02:05.439Z,58.94
2019-03-19T18:04:35.223Z,59.70
2019-03-19T18:07:02.432Z,59.57
2019-03-19T18:09:29.124Z,60.37
2019-03-19T18:11:57.039Z,60.06
2019-03-19T18:14:23.986Z,61.08
2019-03-19T18:16:50.806Z,61.27
2019-03-19T18:19:17.815Z,61.05
2019-03-19T18:21:44.619Z,61.56
2019-03-19T18:24:11.356Z,61.57
2019-03-19T18:26:38.564Z,62.33
2019-03-19T18:29:05.124Z,61.65
2019-03-19T18:31:31.869Z,61.22
2019-03-19T18:34:09.649Z,62.15
2019-03-19T18:36:28.179Z,63.02
2019-03-19T18:38:54.768Z,64.33
2019-03-19T18:41:21.359Z,64.68
2019-03-19T18:43:48.221Z,65.25
2019-03-19T18:46:14.902Z,65.54
2019-03-19T18:48:41.548Z,66.04
2019-03-19T18:51:10.171Z,66.55
2019-03-19T18:53:41.341Z,67.07
2019-03-19T18:56:17.151Z,67.67
2019-03-19T18:58:56.469Z,67.67
2019-03-19T19:01:36.258Z,67.76
2019-03-19T19:04:12.992Z,67.39
2019-03-19T19:06:43.961Z,67.40
2019-03-19T19:09:10.697Z,67.18
2019-03-19T19:11:37.242Z,67.79
2019-03-19T19:14:04.313Z,67.35
2019-03-19T19:16:30.956Z,68.37
2019-03-19T19:18:57.549Z,68.55
2019-03-19T19:21:29.999Z,68.01
2019-03-19T19:23:56.614Z,68.71
2019-03-19T19:26:23.407Z,68.23
2019-03-19T19:28:49.982Z,68.57
2019-03-19T19:32:12.986Z,67.86
2019-03-19T19:34:39.751Z,67.68
2019-03-19T19:37:06.453Z,67.00
2019-03-19T19:39:33.162Z,67.78
2019-03-19T19:41:59.768Z,68.33
2019-03-19T19:44:26.506Z,68.35
2019-03-19T19:46:53.078Z,67.57
2019-03-19T19:49:19.688Z,67.14
2019-03-19T19:51:46.682Z,67.93
2019-03-19T19:54:13.442Z,68.51
2019-03-19T19:56:40.085Z,69.14
2019-03-19T19:59:06.972Z,68.08
2019-03-19T20:01:36.560Z,67.30
2019-03-19T20:04:03.394Z,68.05
2019-03-19T20:06:30.251Z,68.82
2019-03-19T20:08:57.165Z,67.84
2019-03-19T20:11:24.483Z,68.70
2019-03-19T20:13:51.052Z,68.48
2019-03-19T20:16:17.639Z,68.08
2019-03-19T20:18:44.247Z,68.05
2019-03-19T20:21:11.074Z,68.18
2019-03-19T20:23:37.910Z,68.21
2019-03-19T20:26:04.796Z,68.90
2019-03-19T20:28:31.493Z,69.02
2019-03-19T20:30:58.725Z,69.07
2019-03-19T20:33:25.635Z,68.92
2019-03-19T20:35:52.423Z,68.81
2019-03-19T20:38:19.117Z,68.58
2019-03-19T20:40:45.835Z,68.69
2019-03-19T20:43:12.403Z,68.72
2019-03-19T20:45:38.978Z,69.26
2019-03-19T20:48:05.909Z,68.71
2019-03-19T20:50:36.489Z,68.79
2019-03-19T20:53:03.392Z,68.07
2019-03-19T20:55:30.401Z,67.91
2019-03-19T20:57:59.993Z,68.00
2019-03-19T21:00:26.902Z,68.32
2019-03-19T21:02:55.480Z,67.86
2019-03-19T21:05:22.344Z,68.75
2019-03-19T21:07:49.086Z,69.28
2019-03-19T21:10:19.595Z,69.23
2019-03-19T21:12:47.868Z,68.92
2019-03-19T21:15:19.047Z,68.76
2019-03-19T21:17:46.948Z,69.15
2019-03-19T21:20:15.241Z,69.40
2019-03-19T21:22:41.901Z,68.41
2019-03-19T21:25:08.886Z,68.30
2019-03-19T21:27:38.773Z,67.93
2019-03-19T21:30:10.878Z,67.95
2019-03-19T21:32:37.990Z,67.83
2019-03-19T21:35:06.087Z,67.24
2019-03-19T21:37:32.776Z,67.42
2019-03-19T21:39:59.357Z,68.18
2019-03-19T21:42:26.201Z,68.78
2019-03-19T21:44:52.928Z,69.70
2019-03-19T21:47:19.871Z,70.22
2019-03-19T21:49:46.582Z,70.04
2019-03-19T21:52:13.184Z,70.22
2019-03-19T21:54:40.037Z,70.71
2019-03-19T21:57:07.241Z,70.38
2019-03-19T21:59:34.151Z,69.62
2019-03-19T22:02:00.734Z,69.99
2019-03-19T22:04:27.602Z,70.53
2019-03-19T22:06:54.286Z,70.65
2019-03-19T22:09:21.025Z,70.64
2019-03-19T22:11:48.132Z,70.88
2019-03-19T22:14:14.951Z,69.66
2019-03-19T22:16:41.733Z,68.88
2019-03-19T22:19:11.530Z,68.58
2019-03-19T22:21:40.007Z,70.12
2019-03-19T22:24:06.674Z,70.06
2019-03-19T22:26:33.650Z,70.19
2019-03-19T22:29:00.162Z,70.00
2019-03-19T22:31:26.727Z,69.91
2019-03-19T22:33:53.421Z,69.72
2019-03-19T22:36:21.116Z,69.78
2019-03-19T22:38:47.881Z,69.44
2019-03-19T22:41:14.514Z,69.04
2019-03-19T22:43:41.091Z,69.93
2019-03-19T22:46:07.637Z,70.72
2019-03-19T22:48:34.473Z,72.12
2019-03-19T22:51:01.157Z,72.34
2019-03-19T22:53:27.861Z,71.46
2019-03-19T22:55:55.076Z,70.80
2019-03-19T22:58:21.639Z,71.92
2019-03-19T23:00:49.968Z,72.24
2019-03-19T23:03:18.527Z,71.09
2019-03-19T23:05:45.205Z,71.48
2019-03-19T23:08:11.932Z,70.58
2019-03-19T23:10:38.739Z,70.70
2019-03-19T23:13:05.411Z,70.53
2019-03-19T23:15:32.296Z,71.58
2019-03-19T23:17:59.124Z,71.84
2019-03-19T23:21:22.027Z,72.85
2019-03-19T23:23:48.746Z,71.57
2019-03-19T23:26:15.531Z,72.00
2019-03-19T23:28:42.236Z,71.98
2019-03-19T23:31:08.886Z,71.00
2019-03-19T23:33:35.577Z,71.42
2019-03-19T23:36:02.557Z,70.67
2019-03-19T23:38:29.141Z,73.04
2019-03-19T23:41:52.889Z,73.38
2019-03-19T23:44:19.460Z,73.32
2019-03-19T23:46:46.246Z,72.32
2019-03-19T23:49:12.835Z,72.03
2019-03-19T23:51:39.403Z,71.84
2019-03-19T23:54:06.092Z,71.49
2019-03-19T23:56:32.868Z,71.30
2019-03-19T23:58:59.615Z,71.32
